Time;durP1;ratioP1;P1;durP2;ratioP2;P2;SDS_P1;SDS_P2;PMS_P1;PMS_P2;Temp;Humidity;BMP_temperature;BMP_pressure;BME280_temperature;BME280_humidity;BME280_pressure;Samples;Min_cycle;Max_cycle;Signal;HPM_P1;HPM_P2
2022/11/17 00:00:14;;;;;;;21.80;16.75;;;8.80;99.90;;;;;;5040141;28;20568;-64
2022/11/17 00:02:39;;;;;;;19.70;16.85;;;8.90;99.90;;;;;;5039540;28;20081;-64
2022/11/17 00:05:05;;;;;;;23.88;16.60;;;8.80;99.90;;;;;;5041123;28;20041;-63
2022/11/17 00:07:31;;;;;;;21.38;17.73;;;8.90;99.90;;;;;;5040452;28;20111;-67
2022/11/17 00:09:56;;;;;;;21.23;16.50;;;8.80;99.90;;;;;;5007222;28;20048;-65
2022/11/17 00:15:06;;;;;;;21.13;17.08;;;8.90;99.90;;;;;;5040485;28;20084;-63
2022/11/17 00:17:31;;;;;;;19.60;16.60;;;8.90;99.90;;;;;;5041649;28;20399;-63
2022/11/17 00:22:41;;;;;;;19.23;16.27;;;8.90;99.90;;;;;;5034949;28;20108;-62
2022/11/17 00:25:07;;;;;;;20.73;16.90;;;8.90;99.90;;;;;;5005194;28;20315;-65
2022/11/17 00:27:32;;;;;;;20.52;16.13;;;8.90;99.90;;;;;;5041727;28;20047;-63
2022/11/17 00:29:58;;;;;;;19.90;15.88;;;9.00;99.90;;;;;;5042245;28;20088;-63
2022/11/17 00:35:08;;;;;;;20.08;15.55;;;9.00;99.90;;;;;;5043426;28;20363;-62
2022/11/17 00:37:36;;;;;;;19.20;15.48;;;9.00;99.90;;;;;;5044018;28;20033;-64
2022/11/17 00:40:05;;;;;;;18.58;15.40;;;9.00;99.90;;;;;;5043674;28;20490;-65
2022/11/17 00:42:31;;;;;;;20.20;15.45;;;9.00;99.90;;;;;;5039224;28;20037;-64
2022/11/17 00:44:56;;;;;;;19.13;15.13;;;9.10;99.90;;;;;;5043747;28;20105;-64
2022/11/17 00:47:22;;;;;;;19.40;16.20;;;9.10;99.90;;;;;;5044596;28;20045;-64
2022/11/17 00:49:48;;;;;;;17.63;14.63;;;9.10;99.90;;;;;;5044157;28;20127;-64
2022/11/17 00:52:13;;;;;;;17.85;14.77;;;9.20;99.90;;;;;;5040083;28;20047;-64
2022/11/17 00:54:39;;;;;;;20.40;15.20;;;9.10;99.90;;;;;;5047540;28;20056;-64
2022/11/17 00:57:04;;;;;;;21.27;14.93;;;9.20;99.90;;;;;;5041952;28;20070;-64
2022/11/17 00:59:30;;;;;;;17.70;14.82;;;9.20;99.90;;;;;;5044766;28;20039;-63
2022/11/17 01:01:56;;;;;;;18.05;13.45;;;9.10;99.90;;;;;;5042637;28;20048;-64
2022/11/17 01:04:21;;;;;;;17.85;14.13;;;9.20;99.90;;;;;;5024001;28;20217;-65
2022/11/17 01:06:48;;;;;;;17.52;13.73;;;9.20;99.90;;;;;;5026682;28;20095;-64
2022/11/17 01:09:19;;;;;;;17.88;14.43;;;9.20;99.90;;;;;;5043337;28;20033;-64
2022/11/17 01:11:45;;;;;;;17.88;13.95;;;9.30;99.90;;;;;;5042743;28;20041;-64
2022/11/17 01:14:16;;;;;;;16.33;13.90;;;9.30;99.90;;;;;;5044405;28;20036;-64
2022/11/17 01:16:42;;;;;;;16.92;13.60;;;9.30;99.90;;;;;;5042258;28;20052;-64
2022/11/17 01:19:10;;;;;;;16.27;13.10;;;9.10;99.90;;;;;;5023719;28;20137;-64
2022/11/17 01:21:36;;;;;;;19.55;14.02;;;9.30;99.90;;;;;;5041111;28;20483;-65
2022/11/17 01:24:02;;;;;;;16.23;13.25;;;9.30;99.90;;;;;;5023803;28;20041;-64
2022/11/17 01:26:33;;;;;;;17.10;12.82;;;9.30;99.90;;;;;;5043228;28;20064;-65
2022/11/17 01:29:00;;;;;;;17.58;13.35;;;9.30;99.90;;;;;;5043584;28;20045;-65
2022/11/17 01:31:29;;;;;;;17.88;13.25;;;9.30;99.90;;;;;;5024503;28;20347;-65
2022/11/17 01:33:55;;;;;;;17.02;12.98;;;9.20;99.90;;;;;;5023510;28;20085;-65
2022/11/17 01:36:24;;;;;;;19.52;13.93;;;9.30;99.90;;;;;;5007126;28;20049;-64
2022/11/17 01:38:50;;;;;;;20.00;14.13;;;9.20;99.90;;;;;;5041985;28;20139;-65
2022/11/17 01:41:27;;;;;;;15.95;12.45;;;9.20;99.90;;;;;;5023398;28;20128;-64
2022/11/17 01:43:56;;;;;;;17.48;13.40;;;9.20;99.90;;;;;;5024327;28;20562;-63
2022/11/17 01:46:38;;;;;;;16.27;13.02;;;9.20;99.90;;;;;;5043137;28;20127;-63
2022/11/17 01:49:13;;;;;;;16.38;13.20;;;9.30;99.90;;;;;;5017970;28;20045;-63
2022/11/17 01:51:42;;;;;;;14.98;12.63;;;9.30;99.90;;;;;;5039731;28;20180;-64
2022/11/17 01:54:12;;;;;;;17.40;13.98;;;9.30;99.90;;;;;;5038605;28;20122;-64
2022/11/17 01:56:41;;;;;;;21.83;14.05;;;9.20;99.90;;;;;;5043485;28;20490;-64
2022/11/17 01:59:18;;;;;;;16.77;13.48;;;9.10;99.90;;;;;;5041871;28;20029;-64
2022/11/17 02:01:55;;;;;;;16.35;13.32;;;9.10;99.90;;;;;;5042054;28;20034;-63
2022/11/17 02:04:35;;;;;;;17.13;12.75;;;9.10;99.90;;;;;;5041292;28;20033;-64
2022/11/17 02:07:07;;;;;;;17.55;13.35;;;9.10;99.90;;;;;;5020665;28;20135;-63
2022/11/17 02:09:37;;;;;;;16.42;13.00;;;9.10;99.90;;;;;;5040145;28;20045;-64
2022/11/17 02:12:05;;;;;;;16.77;13.30;;;9.10;99.90;;;;;;5040986;28;20045;-64
2022/11/17 02:14:30;;;;;;;16.50;13.55;;;9.10;99.90;;;;;;5043659;28;20128;-64
2022/11/17 02:16:56;;;;;;;18.73;14.50;;;9.10;99.90;;;;;;5043175;28;20132;-63
2022/11/17 02:19:24;;;;;;;20.90;14.65;;;9.10;99.90;;;;;;5041445;28;20231;-63
2022/11/17 02:22:11;;;;;;;17.85;14.30;;;9.10;99.90;;;;;;5040453;28;20047;-64
2022/11/17 02:24:58;;;;;;;19.13;13.48;;;9.10;99.90;;;;;;5039547;28;20033;-63
2022/11/17 02:27:42;;;;;;;17.95;13.70;;;9.10;99.90;;;;;;5042024;28;20145;-63
2022/11/17 02:30:17;;;;;;;17.93;13.57;;;9.00;99.90;;;;;;5045777;28;20666;-64
2022/11/17 02:32:49;;;;;;;19.73;14.02;;;9.00;99.90;;;;;;5042554;28;20279;-63
2022/11/17 02:35:17;;;;;;;17.80;14.05;;;9.00;99.90;;;;;;5039762;28;20434;-63
2022/11/17 02:37:49;;;;;;;19.45;14.07;;;9.00;99.90;;;;;;5046116;28;20057;-63
2022/11/17 02:40:40;;;;;;;18.55;13.88;;;9.00;99.90;;;;;;5048003;28;20037;-64
2022/11/17 02:46:02;;;;;;;18.35;13.48;;;9.00;99.90;;;;;;5036659;28;20037;-64
2022/11/17 02:48:38;;;;;;;20.58;14.57;;;8.90;99.90;;;;;;5039421;28;20037;-64
2022/11/17 02:51:07;;;;;;;20.88;14.50;;;9.00;99.90;;;;;;5039101;28;20427;-64
2022/11/17 02:53:34;;;;;;;21.27;15.00;;;8.90;99.90;;;;;;5035731;28;20378;-63
2022/11/17 02:56:01;;;;;;;17.33;13.82;;;9.00;99.90;;;;;;5034375;28;20045;-63
2022/11/17 02:58:27;;;;;;;17.13;14.43;;;9.00;99.90;;;;;;5036132;28;20037;-64
2022/11/17 03:00:58;;;;;;;17.13;13.30;;;9.00;99.90;;;;;;5034652;28;20033;-64
2022/11/17 03:03:54;;;;;;;22.98;14.77;;;9.00;99.90;;;;;;5038498;28;20037;-64
2022/11/17 03:06:22;;;;;;;19.27;13.20;;;9.00;99.90;;;;;;5029401;28;20029;-63
2022/11/17 03:09:00;;;;;;;18.60;13.43;;;9.00;99.90;;;;;;5041741;28;20466;-63
2022/11/17 03:11:44;;;;;;;17.35;13.05;;;9.00;99.90;;;;;;5031959;28;20520;-63
2022/11/17 03:14:10;;;;;;;;;;;9.10;99.90;;;;;;5030757;28;20029;-63
2022/11/17 03:16:53;;;;;;;17.05;12.85;;;9.00;99.90;;;;;;5035340;28;20351;-63
2022/11/17 03:19:30;;;;;;;20.40;13.80;;;9.00;99.90;;;;;;5037248;28;20057;-63
2022/11/17 03:22:06;;;;;;;20.10;13.82;;;9.00;99.90;;;;;;5035081;28;20680;-63
2022/11/17 03:24:43;;;;;;;15.88;12.48;;;9.00;99.90;;;;;;5033394;28;20044;-63
2022/11/17 03:27:22;;;;;;;15.50;12.73;;;9.00;99.90;;;;;;5035555;28;20034;-63
2022/11/17 03:29:53;;;;;;;17.70;12.38;;;9.00;99.90;;;;;;5038698;28;20045;-63
2022/11/17 03:32:21;;;;;;;18.95;12.45;;;9.00;99.90;;;;;;5038527;28;20701;-63
2022/11/17 03:34:57;;;;;;;18.73;12.80;;;9.00;99.90;;;;;;5041027;28;20029;-63
2022/11/17 03:37:26;;;;;;;16.90;12.52;;;9.00;99.90;;;;;;5031817;28;20802;-62
2022/11/17 03:40:00;;;;;;;15.27;11.20;;;9.10;99.90;;;;;;5034899;28;20459;-64
2022/11/17 03:42:33;;;;;;;15.15;11.38;;;9.00;99.90;;;;;;5040365;28;20045;-62
2022/11/17 03:45:09;;;;;;;15.52;10.63;;;9.10;99.90;;;;;;5038942;28;20324;-63
2022/11/17 03:47:35;;;;;;;14.43;10.48;;;9.10;99.90;;;;;;5038809;28;20414;-64
2022/11/17 03:50:32;;;;;;;13.07;10.25;;;9.10;99.90;;;;;;5042161;28;20041;-63
2022/11/17 03:53:00;;;;;;;13.93;9.68;;;9.20;99.90;;;;;;5037026;28;20533;-64
2022/11/17 03:55:33;;;;;;;14.32;9.82;;;9.20;99.90;;;;;;5041165;28;20043;-64
2022/11/17 03:58:04;;;;;;;13.05;10.75;;;9.20;99.90;;;;;;5021792;28;20475;-64
2022/11/17 04:00:32;;;;;;;12.63;10.23;;;9.20;99.90;;;;;;5021116;28;20060;-64
2022/11/17 04:02:58;;;;;;;14.02;10.20;;;9.20;99.90;;;;;;5038377;28;20537;-64
2022/11/17 04:05:24;;;;;;;14.60;10.10;;;9.20;99.90;;;;;;5029050;28;20121;-65
2022/11/17 04:07:49;;;;;;;15.68;10.80;;;9.30;99.90;;;;;;5045172;28;20177;-63
2022/11/17 04:10:17;;;;;;;13.68;10.35;;;9.20;99.90;;;;;;5044958;28;20594;-63
2022/11/17 04:18:12;;;;;;;12.80;9.30;;;9.20;99.90;;;;;;5045574;28;20059;-63
2022/11/17 04:20:38;;;;;;;13.30;9.63;;;9.20;99.90;;;;;;5042819;28;20033;-63
2022/11/17 04:23:08;;;;;;;12.30;9.25;;;9.30;99.90;;;;;;5041929;28;20388;-65
2022/11/17 04:28:36;;;;;;;11.35;8.43;;;9.30;99.90;;;;;;5015422;28;20053;-63
2022/11/17 04:31:24;;;;;;;11.73;7.78;;;9.30;99.90;;;;;;5045138;28;20042;-64
2022/11/17 04:33:55;;;;;;;9.10;7.75;;;9.30;99.90;;;;;;5046481;28;20037;-63
2022/11/17 04:36:23;;;;;;;9.88;7.72;;;9.40;99.90;;;;;;5043174;28;20323;-63
2022/11/17 04:38:51;;;;;;;10.63;7.70;;;9.30;99.90;;;;;;5042691;28;20033;-63
2022/11/17 04:44:04;;;;;;;10.38;7.05;;;9.40;99.90;;;;;;5038285;28;20052;-64
2022/11/17 04:46:31;;;;;;;9.27;6.93;;;9.40;99.90;;;;;;5062887;28;20078;-63
2022/11/17 04:48:58;;;;;;;9.85;6.75;;;9.40;99.90;;;;;;5061041;28;20033;-64
2022/11/17 04:51:24;;;;;;;9.77;7.63;;;9.40;99.90;;;;;;5062352;28;20461;-63
2022/11/17 04:53:50;;;;;;;8.93;6.90;;;9.40;99.90;;;;;;5055775;28;20445;-64
2022/11/17 04:56:18;;;;;;;9.88;7.65;;;9.40;99.90;;;;;;5056127;28;20447;-64
2022/11/17 04:58:44;;;;;;;9.77;7.93;;;9.50;99.90;;;;;;5046597;28;20025;-65
2022/11/17 05:01:12;;;;;;;10.73;8.10;;;9.40;99.90;;;;;;5059857;28;20178;-65
2022/11/17 05:04:08;;;;;;;9.95;8.30;;;9.40;99.90;;;;;;5058662;28;20512;-63
2022/11/17 05:06:40;;;;;;;11.48;8.77;;;9.30;99.90;;;;;;5058140;28;20037;-63
2022/11/17 05:09:15;;;;;;;11.57;8.68;;;9.30;99.90;;;;;;5058105;28;20322;-63
2022/11/17 05:14:28;;;;;;;11.05;8.55;;;9.20;99.90;;;;;;5057024;28;20048;-63
2022/11/17 05:17:08;;;;;;;11.27;8.73;;;9.30;99.90;;;;;;5057742;28;20037;-63
2022/11/17 05:19:46;;;;;;;11.05;9.10;;;9.20;99.90;;;;;;5055895;28;20037;-64
2022/11/17 05:25:04;;;;;;;11.80;9.18;;;9.20;99.90;;;;;;5055296;28;20606;-64
2022/11/17 05:27:32;;;;;;;11.32;9.25;;;9.10;99.90;;;;;;5060686;28;20043;-64
2022/11/17 05:29:57;;;;;;;12.45;9.52;;;9.10;99.90;;;;;;5060903;28;20037;-64
2022/11/17 05:32:23;;;;;;;10.68;8.82;;;9.10;99.90;;;;;;5057862;28;20102;-63
2022/11/17 05:34:48;;;;;;;12.18;9.63;;;9.10;99.90;;;;;;5064339;28;20032;-63
2022/11/17 05:37:14;;;;;;;12.10;9.35;;;9.10;99.90;;;;;;5058317;28;20107;-63
2022/11/17 05:39:40;;;;;;;12.25;9.77;;;9.10;99.90;;;;;;5056022;28;20543;-64
2022/11/17 05:42:05;;;;;;;12.02;9.50;;;9.10;99.90;;;;;;5045317;28;20041;-64
2022/11/17 05:44:32;;;;;;;11.45;9.25;;;9.20;99.90;;;;;;5042713;28;20068;-64
2022/11/17 05:46:58;;;;;;;10.10;8.75;;;9.10;99.90;;;;;;5043749;28;20043;-64
2022/11/17 05:49:23;;;;;;;9.35;7.97;;;9.10;99.90;;;;;;5043765;28;20140;-63
2022/11/17 05:51:49;;;;;;;9.98;8.73;;;9.10;99.90;;;;;;5042219;28;20385;-63
2022/11/17 05:54:15;;;;;;;9.80;8.48;;;9.10;99.90;;;;;;5041669;28;20048;-65
2022/11/17 05:56:48;;;;;;;11.10;7.82;;;9.10;99.90;;;;;;5043562;28;20398;-63
2022/11/17 05:59:23;;;;;;;10.50;8.10;;;9.10;99.90;;;;;;5039412;28;20056;-63
2022/11/17 06:01:59;;;;;;;10.18;7.95;;;9.00;99.90;;;;;;5039998;28;20037;-64
2022/11/17 06:04:24;;;;;;;9.93;7.80;;;9.00;99.90;;;;;;5043519;28;20034;-63
2022/11/17 06:06:50;;;;;;;10.00;8.07;;;8.90;99.90;;;;;;5043190;28;20041;-64
2022/11/17 06:09:16;;;;;;;9.82;7.63;;;8.90;99.90;;;;;;5020472;28;20029;-63
2022/11/17 06:11:42;;;;;;;9.77;8.20;;;8.90;99.90;;;;;;5041455;28;20033;-65
2022/11/17 06:14:07;;;;;;;10.65;9.00;;;8.80;99.90;;;;;;5047552;28;20045;-64
2022/11/17 06:16:36;;;;;;;9.23;7.90;;;8.80;99.90;;;;;;5043726;28;20033;-63
2022/11/17 06:19:07;;;;;;;10.80;8.18;;;8.80;99.90;;;;;;5041374;28;20045;-63
2022/11/17 06:21:33;;;;;;;9.60;8.02;;;8.80;99.90;;;;;;5025231;28;20041;-62
2022/11/17 06:24:00;;;;;;;12.10;8.32;;;8.70;99.90;;;;;;5042354;28;20040;-63
2022/11/17 06:26:26;;;;;;;8.65;7.70;;;8.70;99.90;;;;;;5042779;28;20171;-63
2022/11/17 06:28:53;;;;;;;9.25;8.10;;;8.80;99.90;;;;;;5041489;28;20044;-63
2022/11/17 06:31:19;;;;;;;8.85;7.95;;;8.70;99.90;;;;;;5044420;28;20041;-63
2022/11/17 06:33:45;;;;;;;10.00;8.40;;;8.70;99.90;;;;;;5025222;28;20277;-64
2022/11/17 06:36:11;;;;;;;10.13;9.05;;;8.70;99.90;;;;;;5040289;28;20030;-62
2022/11/17 06:38:37;;;;;;;9.13;7.90;;;8.70;99.90;;;;;;5043579;28;20707;-66
2022/11/17 06:41:03;;;;;;;9.80;8.57;;;8.70;99.90;;;;;;5047882;28;20057;-63
2022/11/17 06:43:30;;;;;;;10.68;8.40;;;8.70;99.90;;;;;;5035153;28;20065;-64
2022/11/17 06:46:00;;;;;;;9.43;8.43;;;8.70;99.90;;;;;;5038812;28;20350;-62
2022/11/17 06:48:26;;;;;;;10.32;8.95;;;8.70;99.90;;;;;;5045787;28;20112;-62
2022/11/17 06:50:53;;;;;;;9.40;8.40;;;8.70;99.90;;;;;;5042456;28;20171;-64
2022/11/17 06:53:25;;;;;;;10.38;8.95;;;8.70;99.90;;;;;;5039301;28;20037;-62
2022/11/17 06:56:02;;;;;;;10.13;8.73;;;8.70;99.90;;;;;;5036053;28;20126;-65
2022/11/17 06:58:28;;;;;;;9.57;7.82;;;8.80;99.90;;;;;;5037725;28;20037;-62
2022/11/17 07:00:59;;;;;;;8.90;7.97;;;8.80;99.90;;;;;;5036424;28;20047;-63
2022/11/17 07:03:25;;;;;;;10.20;9.10;;;8.80;99.90;;;;;;5035415;28;20041;-63
2022/11/17 07:05:51;;;;;;;9.18;8.02;;;8.80;99.90;;;;;;5040547;28;20029;-64
2022/11/17 07:08:17;;;;;;;11.73;8.88;;;8.90;99.90;;;;;;5036237;28;20044;-63
2022/11/17 07:10:43;;;;;;;10.02;9.00;;;8.90;99.90;;;;;;5036532;28;20162;-63
2022/11/17 07:13:09;;;;;;;11.45;8.77;;;8.90;99.90;;;;;;5032032;28;20079;-64
2022/11/17 07:15:34;;;;;;;9.38;8.35;;;9.00;99.90;;;;;;5018839;28;20042;-64
2022/11/17 07:18:00;;;;;;;9.32;8.27;;;9.00;99.90;;;;;;5036930;28;20057;-63
2022/11/17 07:20:25;;;;;;;11.00;9.43;;;9.00;99.90;;;;;;5040435;28;20051;-64
2022/11/17 07:22:56;;;;;;;12.52;9.32;;;9.00;99.90;;;;;;5020516;28;20102;-65
2022/11/17 07:25:21;;;;;;;11.10;8.52;;;9.00;99.90;;;;;;5024636;28;20045;-63
2022/11/17 07:27:47;;;;;;;9.90;8.68;;;9.00;99.90;;;;;;5041855;28;20049;-64
2022/11/17 07:30:13;;;;;;;10.27;9.07;;;8.90;99.90;;;;;;5042928;28;20086;-64
2022/11/17 07:32:40;;;;;;;13.55;10.10;;;9.00;99.90;;;;;;5041975;28;20037;-63
2022/11/17 07:35:06;;;;;;;11.27;9.68;;;8.90;99.90;;;;;;5039342;28;20041;-66
2022/11/17 07:37:33;;;;;;;10.23;9.20;;;8.80;99.90;;;;;;5037867;28;20056;-63
2022/11/17 07:39:59;;;;;;;11.10;9.65;;;8.80;99.90;;;;;;5020525;28;20080;-63
2022/11/17 07:42:25;;;;;;;11.10;9.40;;;8.80;99.90;;;;;;5036449;28;20473;-63
2022/11/17 07:44:51;;;;;;;13.25;9.80;;;8.90;99.90;;;;;;5030115;28;20163;-63
2022/11/17 07:47:16;;;;;;;11.35;10.02;;;8.80;99.90;;;;;;5040931;28;20414;-64
2022/11/17 07:49:42;;;;;;;11.35;9.85;;;8.90;99.90;;;;;;5041596;28;20028;-64
2022/11/17 07:52:07;;;;;;;11.20;10.00;;;8.80;99.90;;;;;;5040419;28;20106;-63
2022/11/17 07:54:33;;;;;;;12.82;9.25;;;8.90;99.90;;;;;;5039905;28;20076;-64
2022/11/17 07:56:59;;;;;;;10.88;9.40;;;8.90;99.90;;;;;;5037010;28;20041;-65
2022/11/17 07:59:24;;;;;;;11.10;8.93;;;8.80;99.90;;;;;;5026320;28;20374;-63
2022/11/17 08:01:50;;;;;;;10.25;9.00;;;8.80;99.90;;;;;;5037253;28;20467;-63
2022/11/17 08:04:15;;;;;;;14.00;9.98;;;8.80;99.90;;;;;;5037251;28;20037;-64
2022/11/17 08:06:41;;;;;;;11.50;9.35;;;8.80;99.90;;;;;;5039603;28;20108;-64
2022/11/17 08:09:09;;;;;;;10.80;9.70;;;8.80;99.90;;;;;;5035947;28;20099;-63
2022/11/17 08:11:35;;;;;;;10.77;9.20;;;8.80;99.90;;;;;;5032335;28;20523;-64
2022/11/17 08:14:00;;;;;;;10.20;8.95;;;8.80;99.90;;;;;;5035986;28;20218;-63
2022/11/17 08:16:29;;;;;;;10.20;8.75;;;8.80;99.90;;;;;;5036101;28;20042;-63
2022/11/17 08:18:56;;;;;;;10.13;8.82;;;8.90;99.90;;;;;;5034699;28;20037;-63
2022/11/17 08:21:22;;;;;;;11.07;9.75;;;8.90;99.90;;;;;;5037801;28;20370;-62
2022/11/17 08:23:53;;;;;;;11.52;9.95;;;8.90;99.90;;;;;;5032262;28;20052;-65
2022/11/17 08:26:19;;;;;;;11.38;9.45;;;8.80;99.90;;;;;;5034605;28;20045;-62
2022/11/17 08:28:46;;;;;;;11.13;9.30;;;8.90;99.90;;;;;;5037525;28;20478;-63
2022/11/17 08:31:12;;;;;;;12.38;9.70;;;9.00;99.90;;;;;;5037657;28;20083;-63
2022/11/17 08:33:37;;;;;;;10.93;8.98;;;9.00;99.90;;;;;;5038349;28;20040;-63
2022/11/17 08:36:05;;;;;;;10.63;9.45;;;9.00;99.90;;;;;;5033835;28;20041;-63
2022/11/17 08:38:31;;;;;;;11.15;9.35;;;9.00;99.90;;;;;;5034803;28;20446;-63
2022/11/17 08:41:00;;;;;;;10.55;8.68;;;9.00;99.90;;;;;;5051623;28;20091;-62
2022/11/17 08:43:25;;;;;;;10.77;8.52;;;9.00;99.90;;;;;;5054316;28;20044;-63
2022/11/17 08:45:51;;;;;;;10.15;8.20;;;9.10;99.90;;;;;;5057295;28;20093;-62
2022/11/17 08:48:16;;;;;;;9.57;8.20;;;9.10;99.90;;;;;;5056684;28;20043;-63
2022/11/17 08:50:42;;;;;;;10.45;9.05;;;9.20;99.90;;;;;;5058372;28;20127;-63
2022/11/17 08:53:16;;;;;;;9.98;8.45;;;9.30;99.90;;;;;;5055245;28;20574;-63
2022/11/17 08:55:42;;;;;;;9.82;7.38;;;9.30;99.90;;;;;;5054195;28;20404;-63
2022/11/17 08:58:09;;;;;;;9.02;7.35;;;9.30;99.90;;;;;;5060051;28;20041;-63
2022/11/17 09:00:35;;;;;;;9.98;8.30;;;9.30;99.90;;;;;;5060707;28;20040;-63
2022/11/17 09:03:05;;;;;;;9.48;7.43;;;9.40;99.90;;;;;;5059064;28;20109;-63
2022/11/17 09:05:31;;;;;;;10.40;7.43;;;9.40;99.90;;;;;;5065391;28;20068;-64
2022/11/17 09:07:58;;;;;;;13.55;12.15;;;9.40;99.90;;;;;;5038727;28;20415;-63
2022/11/17 09:10:24;;;;;;;10.57;8.57;;;9.40;99.90;;;;;;5059074;28;20454;-63
2022/11/17 09:12:53;;;;;;;10.52;8.02;;;9.40;99.90;;;;;;5053309;28;20044;-64
2022/11/17 09:15:18;;;;;;;9.93;7.88;;;9.40;99.90;;;;;;5059215;28;20473;-64
2022/11/17 09:17:46;;;;;;;10.18;8.25;;;9.40;99.90;;;;;;5060275;28;20033;-63
2022/11/17 09:20:13;;;;;;;10.75;8.52;;;9.40;99.90;;;;;;5042654;28;20461;-63
2022/11/17 09:22:38;;;;;;;10.90;7.95;;;9.50;99.90;;;;;;5062836;28;20037;-63
2022/11/17 09:25:04;;;;;;;10.18;8.27;;;9.50;99.90;;;;;;5057513;28;20047;-64
2022/11/17 09:27:30;;;;;;;9.52;7.85;;;9.50;99.90;;;;;;5060426;28;20040;-63
2022/11/17 09:29:55;;;;;;;10.00;7.80;;;9.60;99.90;;;;;;5061433;28;20032;-64
2022/11/17 09:32:21;;;;;;;10.95;7.93;;;9.50;99.90;;;;;;5060853;28;20435;-63
2022/11/17 09:34:46;;;;;;;8.95;7.63;;;9.50;99.90;;;;;;5061003;28;20033;-64
2022/11/17 09:37:12;;;;;;;8.20;6.93;;;9.50;99.90;;;;;;5054192;28;20037;-64
2022/11/17 09:39:38;;;;;;;8.98;7.93;;;9.50;99.90;;;;;;5058450;28;20523;-64
2022/11/17 09:42:04;;;;;;;10.75;8.48;;;9.60;99.90;;;;;;5059378;28;20077;-66
2022/11/17 09:44:40;;;;;;;12.15;9.90;;;9.60;99.90;;;;;;5041475;28;20039;-64
2022/11/17 09:47:36;;;;;;;12.63;8.77;;;9.60;99.90;;;;;;5039003;28;20113;-64
2022/11/17 09:50:01;;;;;;;10.30;6.90;;;9.60;99.90;;;;;;5060450;28;20056;-64
2022/11/17 09:53:03;;;;;;;10.50;7.47;;;9.50;99.90;;;;;;5053005;28;20037;-64
2022/11/17 09:55:44;;;;;;;8.25;6.95;;;9.50;99.90;;;;;;5058314;28;20040;-64
2022/11/17 09:58:24;;;;;;;8.82;6.85;;;9.60;99.90;;;;;;5040358;28;20045;-62
2022/11/17 10:00:51;;;;;;;9.68;7.05;;;9.60;99.90;;;;;;5058853;28;20074;-63
2022/11/17 10:03:29;;;;;;;7.80;6.47;;;9.60;99.90;;;;;;5038152;28;20044;-63
2022/11/17 10:05:56;;;;;;;10.93;7.68;;;9.70;99.90;;;;;;5057397;28;20053;-64
2022/11/17 10:08:39;;;;;;;10.05;7.32;;;9.60;99.90;;;;;;5059214;28;20116;-62
2022/11/17 10:11:30;;;;;;;11.68;8.43;;;9.70;99.90;;;;;;5032006;28;20113;-63
2022/11/17 10:14:14;;;;;;;10.52;7.38;;;9.70;99.90;;;;;;5053105;28;20045;-63
2022/11/17 10:16:57;;;;;;;8.85;7.00;;;9.70;99.90;;;;;;5057141;28;20032;-63
2022/11/17 10:19:27;;;;;;;10.20;7.25;;;9.70;99.90;;;;;;5059264;28;20033;-63
2022/11/17 10:21:57;;;;;;;8.77;6.47;;;9.70;99.90;;;;;;5037817;28;20455;-63
2022/11/17 10:24:54;;;;;;;9.30;7.05;;;9.80;99.90;;;;;;5056641;28;20112;-65
2022/11/17 10:27:27;;;;;;;9.68;5.80;;;9.90;99.90;;;;;;5057342;28;20107;-63
2022/11/17 10:30:22;;;;;;;8.20;5.47;;;9.90;99.90;;;;;;5059844;28;20237;-65
2022/11/17 10:32:54;;;;;;;8.30;5.22;;;10.00;99.90;;;;;;5056000;28;20048;-63
2022/11/17 10:35:29;;;;;;;8.82;5.50;;;10.10;99.90;;;;;;5055714;28;20536;-63
2022/11/17 10:38:14;;;;;;;8.23;4.95;;;10.10;99.90;;;;;;5037989;28;20064;-64
2022/11/17 10:40:40;;;;;;;6.05;4.05;;;10.10;99.90;;;;;;5053964;28;20095;-64
2022/11/17 10:43:12;;;;;;;7.10;3.50;;;10.20;99.90;;;;;;5057345;28;20045;-64
2022/11/17 10:45:55;;;;;;;7.50;3.15;;;10.30;99.90;;;;;;5052549;28;20052;-64
2022/11/17 10:48:24;;;;;;;5.78;2.30;;;10.30;99.90;;;;;;5054272;28;20029;-63
2022/11/17 10:50:58;;;;;;;5.97;2.30;;;10.30;99.90;;;;;;5038582;28;20363;-64
2022/11/17 10:53:33;;;;;;;4.65;1.90;;;10.30;99.90;;;;;;5056169;28;20127;-63
2022/11/17 10:56:03;;;;;;;7.30;2.35;;;10.40;99.90;;;;;;5055481;28;20049;-63
2022/11/17 10:58:31;;;;;;;6.07;1.83;;;10.50;99.90;;;;;;5056949;28;20072;-63
2022/11/17 11:01:00;;;;;;;4.63;1.58;;;10.50;99.90;;;;;;5056456;28;20069;-64
2022/11/17 11:03:31;;;;;;;6.43;2.08;;;10.50;99.90;;;;;;5057097;28;20462;-63
2022/11/17 11:05:58;;;;;;;5.70;1.77;;;10.50;99.90;;;;;;5058419;28;20051;-64
2022/11/17 11:08:29;;;;;;;3.22;1.65;;;10.50;99.90;;;;;;5055984;28;20461;-63
2022/11/17 11:10:57;;;;;;;4.45;1.60;;;10.50;99.90;;;;;;5054800;28;20033;-64
2022/11/17 11:13:26;;;;;;;5.00;1.73;;;10.50;99.90;;;;;;5039906;28;20051;-64
2022/11/17 11:15:52;;;;;;;5.18;1.65;;;10.50;99.90;;;;;;5058002;28;20067;-64
2022/11/17 11:18:19;;;;;;;3.83;1.58;;;10.50;99.90;;;;;;5055740;28;20435;-63
2022/11/17 11:21:04;;;;;;;3.13;1.40;;;10.50;99.90;;;;;;5059837;28;20201;-63
2022/11/17 11:23:29;;;;;;;4.70;1.30;;;10.60;99.90;;;;;;5054299;28;20382;-64
2022/11/17 11:26:21;;;;;;;5.78;2.17;;;10.50;99.90;;;;;;5058035;28;20122;-64
2022/11/17 11:29:16;;;;;;;3.33;1.27;;;10.60;99.90;;;;;;5057804;28;20506;-64
2022/11/17 11:31:54;;;;;;;4.25;1.60;;;10.50;99.90;;;;;;5055918;28;20466;-63
2022/11/17 11:34:50;;;;;;;4.72;1.55;;;10.60;99.90;;;;;;5054104;28;20032;-64
2022/11/17 11:37:16;;;;;;;6.47;2.28;;;10.60;99.90;;;;;;5050430;28;20122;-64
2022/11/17 11:40:14;;;;;;;4.57;1.65;;;10.60;99.90;;;;;;5055581;28;20463;-64
2022/11/17 11:42:49;;;;;;;5.55;1.65;;;10.60;99.90;;;;;;5054856;28;20056;-65
2022/11/17 11:45:25;;;;;;;4.75;1.30;;;10.60;99.90;;;;;;5055738;28;20512;-65
2022/11/17 11:48:09;;;;;;;4.15;1.77;;;10.70;99.90;;;;;;5056966;28;20417;-65
2022/11/17 11:50:58;;;;;;;5.53;1.55;;;10.70;99.90;;;;;;5023887;28;20499;-66
2022/11/17 11:53:42;;;;;;;4.35;1.52;;;10.70;99.90;;;;;;5036292;28;20036;-66
2022/11/17 11:56:33;;;;;;;4.30;1.35;;;10.70;99.90;;;;;;5063380;28;20437;-67
2022/11/17 11:59:20;;;;;;;6.40;3.58;;;10.60;99.90;;;;;;5038347;28;20040;-65
2022/11/17 12:01:54;;;;;;;6.25;2.17;;;10.60;99.90;;;;;;5055888;28;20430;-66
2022/11/17 12:04:42;;;;;;;6.32;1.85;;;10.60;99.90;;;;;;5058522;28;20040;-66
2022/11/17 12:07:32;;;;;;;6.00;1.83;;;10.60;99.90;;;;;;5057498;28;20477;-64
2022/11/17 12:10:25;;;;;;;6.28;2.90;;;10.60;99.90;;;;;;5053370;28;20029;-66
2022/11/17 12:12:51;;;;;;;5.63;2.17;;;10.50;99.90;;;;;;5049811;28;20052;-65
2022/11/17 12:15:17;;;;;;;4.82;1.90;;;10.60;99.90;;;;;;5057916;28;20439;-64
2022/11/17 12:17:51;;;;;;;3.85;1.70;;;10.50;99.90;;;;;;5058834;28;20037;-64
2022/11/17 12:20:34;;;;;;;5.13;1.55;;;10.50;99.90;;;;;;5057459;28;20040;-64
2022/11/17 12:23:21;;;;;;;3.15;1.67;;;10.60;99.90;;;;;;5050781;28;20467;-64
2022/11/17 12:25:49;;;;;;;5.60;2.00;;;10.50;99.90;;;;;;5060928;28;20747;-64
2022/11/17 12:28:29;;;;;;;5.35;2.72;;;10.50;99.90;;;;;;5055518;28;20082;-64
2022/11/17 12:30:57;;;;;;;5.88;2.13;;;10.50;99.90;;;;;;5059325;28;20044;-64
2022/11/17 12:33:43;;;;;;;5.65;2.00;;;10.60;99.90;;;;;;5061287;28;20037;-64
2022/11/17 12:36:20;;;;;;;3.97;1.90;;;10.60;99.90;;;;;;5059708;28;20390;-64
2022/11/17 12:38:46;;;;;;;5.47;1.80;;;10.50;99.90;;;;;;5041958;28;20044;-64
2022/11/17 12:41:11;;;;;;;7.07;1.88;;;10.50;99.90;;;;;;5060948;28;20378;-63
2022/11/17 12:43:37;;;;;;;5.05;2.20;;;10.50;99.90;;;;;;5060541;28;20044;-64
2022/11/17 12:46:21;;;;;;;5.88;2.10;;;10.50;99.90;;;;;;5062598;28;20041;-66
2022/11/17 12:48:56;;;;;;;5.07;1.70;;;10.50;99.90;;;;;;5063128;28;20112;-63
2022/11/17 12:51:40;;;;;;;6.22;1.83;;;10.50;99.90;;;;;;5045130;28;20032;-63
2022/11/17 12:54:13;;;;;;;6.75;2.00;;;10.50;99.90;;;;;;5056804;28;20135;-62
2022/11/17 12:56:51;;;;;;;6.97;2.05;;;10.50;99.90;;;;;;5060945;28;20047;-62
2022/11/17 12:59:25;;;;;;;5.25;1.98;;;10.50;99.90;;;;;;5056456;28;20045;-63
2022/11/17 13:02:15;;;;;;;6.65;2.10;;;10.50;99.90;;;;;;5042467;28;20518;-63
2022/11/17 13:04:53;;;;;;;5.65;1.90;;;10.40;99.90;;;;;;5060823;28;20041;-62
2022/11/17 13:07:22;;;;;;;4.88;2.03;;;10.30;99.90;;;;;;5061594;28;20044;-63
2022/11/17 13:09:53;;;;;;;6.00;2.60;;;10.40;99.90;;;;;;5057666;28;20042;-64
2022/11/17 13:12:24;;;;;;;6.10;2.50;;;10.50;99.90;;;;;;5058370;28;20152;-64
2022/11/17 13:14:57;;;;;;;6.22;2.97;;;10.40;99.90;;;;;;5065538;28;20036;-64
2022/11/17 13:17:42;;;;;;;6.27;2.60;;;10.40;99.90;;;;;;5043432;28;20458;-64
2022/11/17 13:20:24;;;;;;;;;;;10.40;99.90;;;;;;5045632;28;20366;-63
2022/11/17 13:23:00;;;;;;;7.00;2.70;;;10.40;99.90;;;;;;5061124;28;20299;-63
2022/11/17 13:25:25;;;;;;;5.72;2.25;;;10.40;99.90;;;;;;5059296;28;20558;-63
2022/11/17 13:27:51;;;;;;;4.60;2.00;;;10.50;99.90;;;;;;5059358;28;20044;-63
2022/11/17 13:30:22;;;;;;;5.38;2.47;;;10.50;99.90;;;;;;5063265;28;20064;-64
2022/11/17 13:32:48;;;;;;;6.30;2.47;;;10.50;99.90;;;;;;5041138;28;20049;-63